Time;durP1;ratioP1;P1;durP2;ratioP2;P2;SDS_P1;SDS_P2;PMS_P1;PMS_P2;Temp;Humidity;BMP_temperature;BMP_pressure;BME280_temperature;BME280_humidity;BME280_pressure;Samples;Min_cycle;Max_cycle;Signal;HPM_P1;HPM_P2
2022/07/01 00:00:43;;;;;;;14.63;8.00;;;23.70;74.70;;;;;;5073686;28;20387;-17
2022/07/01 00:03:08;;;;;;;11.90;7.63;;;23.70;74.80;;;;;;5073827;28;20481;-16
2022/07/01 00:05:35;;;;;;;13.45;8.10;;;23.70;75.00;;;;;;5073515;28;20035;-17
2022/07/01 00:08:01;;;;;;;14.57;8.38;;;23.60;75.10;;;;;;5073407;28;20110;-15
2022/07/01 00:10:27;;;;;;;12.43;7.95;;;23.60;75.20;;;;;;5072277;28;20056;-15
2022/07/01 00:12:53;;;;;;;14.52;10.75;;;23.60;75.30;;;;;;5072030;28;20522;-15
2022/07/01 00:15:18;;;;;;;15.82;10.60;;;23.50;76.40;;;;;;5073447;28;20031;-15
2022/07/01 00:17:44;;;;;;;15.40;10.80;;;23.50;76.70;;;;;;5073618;28;20020;-16
2022/07/01 00:20:11;;;;;;;23.10;13.13;;;23.50;77.40;;;;;;5073723;28;20020;-17
2022/07/01 00:22:37;;;;;;;15.80;11.02;;;23.40;77.70;;;;;;5073313;28;20045;-15
2022/07/01 00:25:04;;;;;;;20.73;13.43;;;23.30;78.00;;;;;;5073172;28;20078;-15
2022/07/01 00:27:30;;;;;;;18.55;11.98;;;23.20;78.40;;;;;;5073601;28;20037;-16
2022/07/01 00:29:55;;;;;;;16.55;11.70;;;23.20;78.60;;;;;;5073766;28;20020;-16
2022/07/01 00:32:22;;;;;;;18.02;12.43;;;23.10;78.60;;;;;;5074030;28;20013;-15
2022/07/01 00:34:48;;;;;;;22.52;13.32;;;23.00;78.50;;;;;;5073085;28;20024;-16
2022/07/01 00:37:14;;;;;;;18.65;12.48;;;23.00;78.00;;;;;;5073164;28;20021;-16
2022/07/01 00:39:40;;;;;;;18.60;12.38;;;23.00;78.90;;;;;;5073378;28;20056;-16
2022/07/01 00:42:06;;;;;;;16.15;12.27;;;22.90;79.00;;;;;;5073032;28;20153;-17
2022/07/01 00:44:32;;;;;;;19.15;13.43;;;22.90;79.20;;;;;;5073063;28;20024;-16
2022/07/01 00:47:07;;;;;;;18.63;13.50;;;22.90;79.30;;;;;;5072975;28;20028;-15
2022/07/01 00:49:36;;;;;;;25.58;17.50;;;22.90;78.90;;;;;;5072953;28;20048;-16
2022/07/01 00:52:02;;;;;;;21.88;15.65;;;22.90;81.00;;;;;;5072871;28;20027;-15
2022/07/01 00:54:30;;;;;;;21.90;15.60;;;22.90;80.30;;;;;;5073008;28;20028;-15
2022/07/01 00:56:56;;;;;;;15.68;12.40;;;22.90;80.70;;;;;;5072890;28;20060;-16
2022/07/01 00:59:24;;;;;;;16.95;10.82;;;22.90;80.30;;;;;;5072849;28;20048;-16
2022/07/01 01:01:50;;;;;;;20.08;13.93;;;22.90;79.50;;;;;;5073083;28;20032;-17
2022/07/01 01:04:16;;;;;;;15.93;11.80;;;22.90;79.40;;;;;;5072591;28;20036;-15
2022/07/01 01:06:42;;;;;;;29.30;17.35;;;22.90;79.50;;;;;;5072748;28;20520;-18
2022/07/01 01:09:08;;;;;;;17.10;11.88;;;22.90;79.60;;;;;;5073111;28;20032;-16
2022/07/01 01:11:34;;;;;;;19.17;12.60;;;22.90;79.60;;;;;;5072759;28;20078;-17
2022/07/01 01:14:00;;;;;;;17.70;11.48;;;22.90;79.40;;;;;;5073130;28;20032;-16
2022/07/01 01:16:26;;;;;;;17.85;11.63;;;22.90;79.40;;;;;;5072805;28;20034;-16
2022/07/01 01:18:53;;;;;;;20.38;13.10;;;22.90;79.60;;;;;;5072688;28;20040;-16
2022/07/01 01:21:20;;;;;;;18.45;12.85;;;22.90;79.50;;;;;;5072523;28;20145;-17
2022/07/01 01:23:45;;;;;;;17.48;12.75;;;22.90;79.70;;;;;;5072936;28;20032;-16
2022/07/01 01:26:20;;;;;;;20.13;14.63;;;22.80;80.00;;;;;;5073461;28;20538;-18
2022/07/01 01:28:47;;;;;;;22.52;14.50;;;22.80;80.90;;;;;;5076471;28;20025;-16
2022/07/01 01:31:12;;;;;;;18.63;12.57;;;22.80;81.10;;;;;;5076329;28;20380;-16
2022/07/01 01:33:39;;;;;;;27.83;16.55;;;22.70;80.30;;;;;;5077147;28;20024;-15
2022/07/01 01:36:06;;;;;;;18.88;13.52;;;22.70;80.30;;;;;;5076157;28;20480;-16
2022/07/01 01:38:36;;;;;;;23.85;16.08;;;22.70;80.80;;;;;;5076315;28;20047;-16
2022/07/01 01:41:04;;;;;;;23.90;16.00;;;22.70;81.20;;;;;;5076938;28;20119;-16
2022/07/01 01:43:30;;;;;;;21.17;13.60;;;22.70;81.50;;;;;;5076423;28;20514;-16
2022/07/01 01:45:56;;;;;;;20.73;14.13;;;22.60;81.50;;;;;;5076071;28;20472;-18
2022/07/01 01:48:22;;;;;;;22.33;14.80;;;22.60;82.00;;;;;;5074377;28;20102;-16
2022/07/01 01:50:48;;;;;;;20.33;14.13;;;22.60;81.90;;;;;;5076185;28;20043;-16
2022/07/01 01:53:14;;;;;;;19.38;13.50;;;22.60;81.60;;;;;;5075942;28;20111;-15
2022/07/01 01:55:40;;;;;;;24.13;14.23;;;22.60;81.40;;;;;;5076498;28;20436;-16
2022/07/01 01:58:06;;;;;;;21.42;14.40;;;22.60;81.80;;;;;;5076469;28;20107;-18
2022/07/01 02:00:32;;;;;;;20.52;13.52;;;22.50;82.00;;;;;;5075827;28;20032;-18
2022/07/01 02:02:58;;;;;;;18.13;13.18;;;22.50;81.80;;;;;;5076047;28;20380;-16
2022/07/01 02:05:24;;;;;;;22.02;14.43;;;22.50;81.50;;;;;;5076313;28;20028;-16
2022/07/01 02:07:50;;;;;;;20.55;12.82;;;22.50;81.40;;;;;;5075688;28;20052;-16
2022/07/01 02:10:16;;;;;;;19.48;12.75;;;22.40;81.40;;;;;;5075888;28;20409;-16
2022/07/01 02:12:42;;;;;;;21.85;14.45;;;22.40;81.50;;;;;;5075605;28;20102;-16
2022/07/01 02:15:08;;;;;;;20.13;12.13;;;22.40;81.80;;;;;;5074349;28;20090;-16
2022/07/01 02:17:34;;;;;;;26.17;15.93;;;22.40;81.90;;;;;;5075524;28;20028;-16
2022/07/01 02:20:00;;;;;;;17.60;12.52;;;22.40;82.50;;;;;;5075371;28;20078;-16
2022/07/01 02:22:26;;;;;;;17.40;12.05;;;22.40;82.20;;;;;;5075048;28;20032;-16
2022/07/01 02:24:52;;;;;;;16.80;11.32;;;22.40;81.80;;;;;;5075845;28;20025;-15
2022/07/01 02:27:18;;;;;;;18.83;12.38;;;22.40;81.70;;;;;;5075604;28;20031;-15
2022/07/01 02:29:44;;;;;;;23.30;15.07;;;22.30;81.60;;;;;;5075288;28;20025;-16
2022/07/01 02:32:11;;;;;;;20.98;13.48;;;22.40;81.50;;;;;;5075205;28;20025;-16
2022/07/01 02:34:37;;;;;;;18.73;12.73;;;22.30;81.60;;;;;;5075060;28;20381;-18
2022/07/01 02:37:04;;;;;;;19.23;12.15;;;22.40;81.50;;;;;;5075267;28;20033;-16
2022/07/01 02:39:29;;;;;;;16.92;11.52;;;22.40;81.40;;;;;;5075084;28;20028;-16
2022/07/01 02:44:39;;;;;;;16.30;11.32;;;22.40;81.30;;;;;;5075593;28;20082;-16
2022/07/01 02:47:06;;;;;;;18.70;10.93;;;22.40;81.30;;;;;;5075180;28;20411;-15
2022/07/01 02:49:32;;;;;;;18.00;11.73;;;22.40;81.40;;;;;;5074721;28;20041;-16
2022/07/01 02:51:58;;;;;;;19.30;13.15;;;22.40;81.20;;;;;;5074778;28;20077;-16
2022/07/01 02:54:24;;;;;;;18.10;13.15;;;22.40;81.30;;;;;;5074535;28;20111;-17
2022/07/01 02:56:50;;;;;;;17.08;12.55;;;22.40;81.30;;;;;;5075456;28;20032;-16
2022/07/01 02:59:16;;;;;;;18.73;11.07;;;22.40;81.40;;;;;;5075100;28;20024;-17
2022/07/01 03:01:41;;;;;;;16.10;10.55;;;22.40;81.40;;;;;;5074807;28;20124;-17
2022/07/01 03:04:07;;;;;;;16.95;12.45;;;22.40;81.30;;;;;;5074583;28;20381;-16
2022/07/01 03:06:33;;;;;;;20.08;12.95;;;22.40;81.30;;;;;;5074756;28;20064;-16
2022/07/01 03:08:59;;;;;;;19.02;12.05;;;22.40;81.40;;;;;;5074804;28;20116;-17
2022/07/01 03:11:25;;;;;;;18.30;12.55;;;22.40;81.50;;;;;;5074556;28;20045;-18
2022/07/01 03:13:51;;;;;;;23.10;13.85;;;22.30;81.60;;;;;;5074425;28;20032;-17
2022/07/01 03:16:17;;;;;;;16.80;11.43;;;22.20;81.80;;;;;;5074499;28;20031;-17
2022/07/01 03:18:43;;;;;;;23.98;15.30;;;22.20;82.00;;;;;;5074621;28;20020;-16
2022/07/01 03:21:09;;;;;;;19.42;13.88;;;22.20;81.90;;;;;;5074430;28;20032;-19
2022/07/01 03:23:35;;;;;;;15.82;12.30;;;22.10;82.00;;;;;;5074813;28;20420;-16
2022/07/01 03:26:01;;;;;;;18.05;11.35;;;22.00;82.00;;;;;;5074151;28;20077;-17
2022/07/01 03:28:27;;;;;;;18.58;12.23;;;22.10;82.10;;;;;;5074231;28;20021;-16
2022/07/01 03:30:53;;;;;;;21.20;14.32;;;22.00;82.20;;;;;;5072873;28;20468;-15
2022/07/01 03:33:19;;;;;;;18.73;12.30;;;21.90;82.30;;;;;;5074086;28;20025;-16
2022/07/01 03:35:45;;;;;;;20.40;13.45;;;21.90;82.30;;;;;;5074561;28;20020;-20
2022/07/01 03:38:12;;;;;;;21.27;14.88;;;21.90;82.50;;;;;;5072702;28;20031;-17
2022/07/01 03:40:38;;;;;;;25.58;15.02;;;21.90;82.50;;;;;;5073585;28;20381;-17
2022/07/01 03:43:05;;;;;;;19.63;13.68;;;21.90;82.60;;;;;;5073799;28;20028;-16
2022/07/01 03:45:32;;;;;;;20.50;12.90;;;21.90;82.60;;;;;;5073799;28;20089;-16
2022/07/01 03:47:58;;;;;;;20.65;13.05;;;21.90;82.70;;;;;;5073485;28;20123;-16
2022/07/01 03:50:25;;;;;;;22.42;15.68;;;21.90;82.80;;;;;;5073457;28;20036;-16
2022/07/01 03:55:36;;;;;;;28.02;19.17;;;21.80;83.40;;;;;;5074092;28;20173;-17
2022/07/01 03:58:03;;;;;;;23.38;14.82;;;21.80;84.20;;;;;;5073597;28;20025;-17
2022/07/01 04:00:33;;;;;;;22.05;15.35;;;21.80;83.80;;;;;;5072024;28;20411;-16
2022/07/01 04:02:58;;;;;;;21.85;15.15;;;21.80;83.70;;;;;;5073980;28;20127;-16
2022/07/01 04:05:24;;;;;;;22.70;16.15;;;21.80;84.00;;;;;;5073527;28;20064;-17
2022/07/01 04:07:50;;;;;;;23.90;16.60;;;21.90;84.60;;;;;;5073396;28;20043;-16
2022/07/01 04:10:16;;;;;;;31.33;20.50;;;21.90;85.00;;;;;;5073360;28;20032;-18
2022/07/01 04:12:43;;;;;;;29.98;19.17;;;21.90;85.50;;;;;;5073639;28;20453;-16
2022/07/01 04:15:09;;;;;;;32.47;20.67;;;21.90;85.50;;;;;;5073629;28;20056;-18
2022/07/01 04:17:35;;;;;;;34.53;24.02;;;22.00;86.10;;;;;;5072067;28;20033;-17
2022/07/01 04:20:02;;;;;;;27.17;18.88;;;22.10;85.80;;;;;;5073239;28;20403;-16
2022/07/01 04:22:35;;;;;;;28.25;18.98;;;22.20;86.20;;;;;;5073211;28;20103;-16
2022/07/01 04:25:03;;;;;;;27.50;18.63;;;22.20;86.20;;;;;;5073505;28;20434;-16
2022/07/01 04:27:30;;;;;;;32.55;19.02;;;22.40;85.90;;;;;;5073158;28;20043;-17
2022/07/01 04:29:56;;;;;;;35.25;21.55;;;22.40;85.90;;;;;;5073478;28;20533;-17
2022/07/01 04:32:23;;;;;;;35.75;22.92;;;22.50;86.50;;;;;;5073790;28;20025;-16
2022/07/01 04:34:50;;;;;;;27.55;19.77;;;22.60;86.40;;;;;;5073422;28;20058;-16
2022/07/01 04:37:16;;;;;;;27.25;18.65;;;22.60;85.80;;;;;;5073470;28;20028;-18
2022/07/01 04:39:42;;;;;;;34.28;22.13;;;22.70;85.90;;;;;;5073322;28;20029;-17
2022/07/01 04:42:08;;;;;;;25.98;17.15;;;22.80;86.20;;;;;;5073198;28;20025;-16
2022/07/01 04:44:36;;;;;;;24.10;17.65;;;22.90;85.40;;;;;;5072821;28;20036;-16
2022/07/01 04:47:04;;;;;;;38.72;24.23;;;22.90;85.00;;;;;;5073331;28;20043;-16
2022/07/01 04:49:31;;;;;;;34.88;21.63;;;23.10;85.20;;;;;;5072758;28;20048;-16
2022/07/01 04:51:57;;;;;;;33.70;21.65;;;23.20;85.80;;;;;;5072850;28;20013;-16
2022/07/01 04:54:25;;;;;;;25.00;18.13;;;23.30;85.50;;;;;;5072811;28;20064;-16
2022/07/01 04:56:52;;;;;;;31.17;20.08;;;23.40;85.00;;;;;;5073220;28;20027;-16
2022/07/01 04:59:19;;;;;;;29.08;20.45;;;23.40;84.80;;;;;;5072913;28;20112;-16
2022/07/01 05:01:49;;;;;;;24.05;18.55;;;23.50;84.60;;;;;;5074576;28;20024;-18
2022/07/01 05:04:17;;;;;;;30.80;17.95;;;23.60;84.20;;;;;;5077014;28;20032;-18
2022/07/01 05:06:44;;;;;;;31.10;19.55;;;23.70;84.10;;;;;;5076785;28;20484;-15
2022/07/01 05:09:11;;;;;;;34.60;20.80;;;23.90;84.10;;;;;;5076818;28;20582;-17
2022/07/01 05:11:38;;;;;;;31.02;17.42;;;23.90;84.10;;;;;;5077041;28;20025;-16
2022/07/01 05:14:06;;;;;;;27.42;18.38;;;24.00;83.50;;;;;;5076711;28;20028;-17
2022/07/01 05:16:33;;;;;;;31.15;20.52;;;24.10;83.50;;;;;;5076473;28;20031;-16
2022/07/01 05:21:57;;;;;;;33.90;20.48;;;24.30;82.70;;;;;;5076636;28;20074;-16
2022/07/01 05:24:28;;;;;;;23.65;15.55;;;24.40;83.10;;;;;;5076983;28;20392;-18
2022/07/01 05:26:54;;;;;;;29.08;18.40;;;24.60;82.30;;;;;;5076467;28;20108;-18
2022/07/01 05:29:20;;;;;;;29.60;17.60;;;24.70;82.30;;;;;;5076697;28;20112;-17
2022/07/01 05:31:46;;;;;;;29.45;20.33;;;24.90;82.20;;;;;;5076517;28;20450;-16
2022/07/01 05:34:12;;;;;;;30.38;20.80;;;24.90;82.00;;;;;;5076629;28;20051;-17
2022/07/01 05:36:37;;;;;;;31.15;20.13;;;25.00;81.90;;;;;;5076006;28;20097;-16
2022/07/01 05:39:04;;;;;;;31.65;19.40;;;25.00;81.80;;;;;;5076204;28;20032;-16
2022/07/01 05:41:31;;;;;;;30.00;18.17;;;25.10;81.70;;;;;;5076414;28;20036;-16
2022/07/01 05:43:57;;;;;;;26.80;19.42;;;25.20;81.40;;;;;;5076477;28;20036;-15
2022/07/01 05:46:23;;;;;;;32.40;20.60;;;25.30;81.30;;;;;;5076177;28;20028;-16
2022/07/01 05:48:49;;;;;;;29.13;19.75;;;25.40;81.30;;;;;;5075816;28;20492;-16
2022/07/01 05:51:15;;;;;;;28.50;19.48;;;25.40;81.20;;;;;;5076145;28;20342;-16
2022/07/01 05:53:43;;;;;;;31.50;19.75;;;25.40;81.00;;;;;;5076252;28;20025;-17
2022/07/01 05:56:10;;;;;;;27.67;19.17;;;25.40;81.30;;;;;;5075881;28;20218;-17
2022/07/01 05:58:36;;;;;;;27.80;18.65;;;25.50;81.30;;;;;;5075597;28;20029;-15
2022/07/01 06:01:02;;;;;;;27.63;18.42;;;25.60;80.90;;;;;;5076010;28;20027;-15
2022/07/01 06:03:28;;;;;;;24.52;18.10;;;25.70;80.40;;;;;;5075848;28;20499;-17
2022/07/01 06:05:54;;;;;;;25.42;16.30;;;25.80;80.70;;;;;;5075754;28;20024;-17
2022/07/01 06:08:20;;;;;;;26.85;16.85;;;25.90;80.20;;;;;;5075720;28;20040;-16
2022/07/01 06:10:46;;;;;;;23.02;15.32;;;25.90;80.30;;;;;;5075947;28;20020;-16
2022/07/01 06:13:12;;;;;;;23.67;16.55;;;26.00;80.00;;;;;;5075431;28;20538;-15
2022/07/01 06:15:38;;;;;;;23.00;16.33;;;26.10;79.30;;;;;;5075594;28;20031;-16
2022/07/01 06:18:04;;;;;;;24.15;16.33;;;26.20;79.30;;;;;;5075843;28;20107;-16
2022/07/01 06:20:30;;;;;;;23.30;13.65;;;26.30;78.90;;;;;;5075852;28;20029;-17
2022/07/01 06:22:57;;;;;;;23.65;14.43;;;26.30;78.80;;;;;;5075658;28;20084;-16
2022/07/01 06:25:24;;;;;;;24.88;14.13;;;26.40;78.20;;;;;;5075357;28;20028;-16
2022/07/01 06:27:50;;;;;;;23.63;13.50;;;26.40;78.20;;;;;;5075975;28;20034;-16
2022/07/01 06:30:16;;;;;;;19.98;14.00;;;26.60;78.10;;;;;;5075194;28;20093;-15
2022/07/01 06:32:42;;;;;;;21.88;13.02;;;26.70;77.50;;;;;;5075178;28;20029;-14
2022/07/01 06:35:09;;;;;;;21.20;14.30;;;26.80;77.00;;;;;;5075513;28;20028;-17
2022/07/01 06:37:35;;;;;;;19.45;11.55;;;26.80;76.50;;;;;;5075093;28;20024;-17
2022/07/01 06:40:04;;;;;;;19.50;11.43;;;26.90;76.70;;;;;;5075069;28;20126;-14
2022/07/01 06:42:31;;;;;;;17.00;11.73;;;27.00;76.10;;;;;;5075018;28;20040;-17
2022/07/01 06:44:57;;;;;;;23.27;14.05;;;27.10;76.00;;;;;;5075264;28;20037;-15
2022/07/01 06:47:23;;;;;;;14.50;10.38;;;27.20;76.10;;;;;;5075421;28;20040;-15
2022/07/01 06:49:48;;;;;;;19.15;10.48;;;27.20;76.20;;;;;;5074752;28;20083;-15
2022/07/01 06:52:14;;;;;;;17.50;10.02;;;27.40;75.30;;;;;;5074867;28;20025;-16
2022/07/01 06:54:40;;;;;;;13.40;9.00;;;27.50;75.00;;;;;;5073652;28;20392;-15
2022/07/01 06:57:06;;;;;;;14.00;9.15;;;27.70;74.20;;;;;;5073574;28;20021;-17
2022/07/01 06:59:33;;;;;;;14.38;9.60;;;27.90;73.80;;;;;;5075052;28;20046;-17
2022/07/01 07:01:59;;;;;;;16.98;9.52;;;27.90;73.00;;;;;;5074936;28;20149;-15
2022/07/01 07:04:25;;;;;;;15.27;8.98;;;27.90;72.30;;;;;;5073180;28;20029;-15
2022/07/01 07:06:52;;;;;;;15.43;8.75;;;28.00;72.60;;;;;;5074811;28;20025;-16
2022/07/01 07:09:18;;;;;;;10.43;7.55;;;28.10;72.30;;;;;;5073340;28;20016;-17
2022/07/01 07:11:44;;;;;;;16.92;8.73;;;28.10;71.90;;;;;;5074650;28;20048;-17
2022/07/01 07:14:10;;;;;;;16.60;8.40;;;28.30;71.50;;;;;;5074742;28;20073;-15
2022/07/01 07:16:38;;;;;;;15.32;7.60;;;28.40;70.80;;;;;;5074207;28;20434;-15
2022/07/01 07:19:04;;;;;;;15.27;7.55;;;28.60;70.30;;;;;;5074348;28;20024;-15
2022/07/01 07:21:30;;;;;;;19.20;8.32;;;28.80;69.70;;;;;;5074070;28;20036;-15
2022/07/01 07:23:56;;;;;;;15.38;7.65;;;28.90;68.10;;;;;;5073353;28;20043;-15
2022/07/01 07:26:22;;;;;;;13.70;7.03;;;28.90;68.00;;;;;;5074531;28;20013;-15
2022/07/01 07:28:48;;;;;;;13.18;7.20;;;29.20;68.20;;;;;;5074366;28;20073;-15
2022/07/01 07:31:14;;;;;;;15.23;6.72;;;29.30;65.90;;;;;;5074025;28;20078;-15
2022/07/01 07:33:40;;;;;;;16.30;7.18;;;29.50;66.00;;;;;;5074321;28;20043;-15
2022/07/01 07:36:05;;;;;;;14.73;6.50;;;29.60;63.90;;;;;;5074134;28;20492;-15
2022/07/01 07:38:31;;;;;;;10.90;6.47;;;29.70;62.40;;;;;;5074004;28;20482;-15
2022/07/01 07:41:00;;;;;;;13.48;6.00;;;29.90;63.80;;;;;;5073906;28;20495;-17
2022/07/01 07:43:26;;;;;;;11.20;5.45;;;29.90;62.70;;;;;;5073812;28;20621;-15
2022/07/01 07:45:52;;;;;;;11.50;5.43;;;29.90;60.80;;;;;;5074109;28;20107;-16
2022/07/01 07:48:18;;;;;;;9.85;4.93;;;29.90;60.60;;;;;;4998970;28;20530;-15
2022/07/01 07:50:44;;;;;;;10.07;4.88;;;30.00;60.50;;;;;;5073766;28;20067;-15
2022/07/01 07:53:11;;;;;;;13.63;5.07;;;30.00;59.10;;;;;;5073857;28;20104;-13
2022/07/01 07:55:37;;;;;;;9.30;4.80;;;30.10;58.50;;;;;;5073596;28;20488;-15
2022/07/01 07:58:05;;;;;;;12.80;5.03;;;30.00;58.40;;;;;;5073867;28;20052;-15
2022/07/01 08:00:32;;;;;;;11.70;4.70;;;30.00;55.50;;;;;;5073560;28;20040;-15
2022/07/01 08:02:58;;;;;;;10.88;4.68;;;30.10;56.60;;;;;;5073498;28;20400;-12
2022/07/01 08:05:24;;;;;;;9.52;4.40;;;30.10;57.10;;;;;;5073962;28;20029;-14
2022/07/01 08:07:51;;;;;;;12.50;4.80;;;30.30;55.80;;;;;;5073634;28;20056;-16
2022/07/01 08:10:17;;;;;;;7.93;4.25;;;30.30;55.10;;;;;;5073192;28;20024;-13
2022/07/01 08:12:43;;;;;;;10.98;4.60;;;30.20;56.60;;;;;;5073587;28;20092;-15
2022/07/01 08:15:10;;;;;;;15.32;5.35;;;30.20;56.50;;;;;;5073653;28;20108;-15
2022/07/01 08:17:36;;;;;;;10.88;5.10;;;30.10;54.20;;;;;;5073298;28;20455;-14
2022/07/01 08:20:02;;;;;;;13.70;4.88;;;30.20;55.50;;;;;;5073271;28;20535;-14
2022/07/01 08:22:28;;;;;;;10.02;4.78;;;30.20;54.70;;;;;;5073102;28;20025;-16
2022/07/01 08:24:54;;;;;;;9.27;4.50;;;30.20;55.10;;;;;;5073234;28;20059;-15
2022/07/01 08:27:20;;;;;;;10.05;4.40;;;30.00;55.10;;;;;;5073443;28;20063;-15
2022/07/01 08:29:46;;;;;;;10.85;4.65;;;29.90;53.90;;;;;;5073142;28;20028;-15
2022/07/01 08:32:12;;;;;;;9.90;4.30;;;29.90;55.00;;;;;;5073257;28;20074;-15
2022/07/01 08:34:38;;;;;;;15.05;4.38;;;29.90;53.70;;;;;;5072857;28;20027;-15
2022/07/01 08:37:04;;;;;;;11.15;4.35;;;30.00;53.40;;;;;;5072813;28;20028;-14
2022/07/01 08:39:30;;;;;;;9.80;4.30;;;30.20;52.10;;;;;;5073132;28;20119;-16
2022/07/01 08:41:56;;;;;;;10.38;3.78;;;30.50;52.00;;;;;;5072902;28;20074;-15
2022/07/01 08:44:22;;;;;;;11.60;4.32;;;30.80;51.90;;;;;;5073127;28;20078;-15
2022/07/01 08:46:48;;;;;;;13.18;4.43;;;31.20;51.00;;;;;;5073364;28;20044;-16
2022/07/01 08:49:16;;;;;;;12.60;4.13;;;31.50;50.30;;;;;;5072830;28;20052;-14
2022/07/01 08:51:42;;;;;;;12.35;4.40;;;31.70;50.50;;;;;;5073172;28;20025;-15
2022/07/01 08:54:08;;;;;;;13.02;5.07;;;31.60;49.70;;;;;;5072898;28;20395;-15
2022/07/01 08:56:45;;;;;;;10.60;4.18;;;31.70;49.80;;;;;;5072619;28;20086;-14
2022/07/01 08:59:22;;;;;;;14.18;4.68;;;31.90;49.00;;;;;;5072901;28;20464;-15
2022/07/01 09:01:58;;;;;;;9.60;4.25;;;32.20;48.80;;;;;;5072827;28;20032;-15
2022/07/01 09:04:25;;;;;;;15.32;5.07;;;32.50;48.40;;;;;;5072675;28;20029;-16
2022/07/01 09:06:57;;;;;;;12.98;4.55;;;32.80;47.30;;;;;;5073234;28;20024;-15
2022/07/01 09:09:23;;;;;;;13.30;4.88;;;32.90;46.80;;;;;;5072877;28;20025;-15
2022/07/01 09:11:55;;;;;;;10.73;4.60;;;33.10;47.40;;;;;;5072882;28;20070;-16
2022/07/01 09:14:23;;;;;;;;;;;33.30;47.00;;;;;;5073294;28;20050;-12
2022/07/01 09:16:50;;;;;;;11.43;4.90;;;33.40;46.30;;;;;;5072777;28;19910;-17
2022/07/01 09:19:18;;;;;;;11.52;5.18;;;33.70;46.50;;;;;;5072981;28;20111;-14
2022/07/01 09:21:52;;;;;;;9.68;4.88;;;33.90;45.90;;;;;;5072831;28;20029;-16
2022/07/01 09:24:27;;;;;;;10.77;4.35;;;34.20;45.80;;;;;;5072511;28;20111;-17
2022/07/01 09:26:55;;;;;;;10.07;4.55;;;34.40;45.70;;;;;;5072867;28;20120;-16
2022/07/01 09:29:33;;;;;;;17.80;5.40;;;34.50;44.90;;;;;;5072871;28;20043;-15
2022/07/01 09:32:02;;;;;;;10.35;4.90;;;34.70;44.40;;;;;;5072961;28;20028;-17
2022/07/01 09:34:46;;;;;;;11.23;5.28;;;34.80;44.80;;;;;;5072622;28;20468;-16
2022/07/01 09:37:16;;;;;;;15.00;5.30;;;34.90;44.10;;;;;;5072472;28;20472;-15
2022/07/01 09:39:57;;;;;;;7.68;4.60;;;34.90;43.50;;;;;;5072939;28;20029;-15
2022/07/01 09:42:26;;;;;;;8.85;4.15;;;35.20;43.80;;;;;;5073371;28;20407;-16
2022/07/01 09:44:59;;;;;;;13.95;4.68;;;35.40;44.10;;;;;;5072573;28;20032;-16
2022/07/01 09:47:29;;;;;;;11.32;4.45;;;35.70;43.30;;;;;;5073545;28;20029;-15
2022/07/01 09:49:55;;;;;;;13.70;4.15;;;36.00;41.80;;;;;;5075853;28;20051;-17
2022/07/01 09:52:22;;;;;;;10.63;4.30;;;35.90;42.30;;;;;;5075681;28;20031;-15
2022/07/01 09:54:50;;;;;;;10.77;4.60;;;36.30;40.50;;;;;;5076290;28;20024;-15
2022/07/01 09:57:20;;;;;;;10.32;3.92;;;36.50;40.90;;;;;;5076763;28;20029;-15
2022/07/01 10:03:09;;;;;;;10.93;4.22;;;36.70;40.40;;;;;;5076158;28;20051;-15
2022/07/01 10:05:56;;;;;;;12.77;4.28;;;36.90;40.60;;;;;;5075796;28;20040;-15
2022/07/01 10:08:46;;;;;;;12.02;4.40;;;37.00;40.90;;;;;;5074204;28;20035;-15
2022/07/01 10:11:13;;;;;;;16.08;4.40;;;37.00;40.70;;;;;;5076018;28;20025;-15
2022/07/01 10:13:41;;;;;;;9.02;3.72;;;37.20;40.90;;;;;;5075570;28;20555;-15
2022/07/01 10:16:10;;;;;;;13.68;4.60;;;37.40;40.80;;;;;;5075885;28;20032;-16
2022/07/01 10:18:36;;;;;;;11.27;4.25;;;37.30;38.50;;;;;;5075649;28;20029;-15
2022/07/01 10:21:03;;;;;;;10.63;3.63;;;36.50;40.70;;;;;;5075776;28;20090;-16
2022/07/01 10:23:39;;;;;;;10.68;3.80;;;36.00;42.10;;;;;;5075708;28;20112;-15
2022/07/01 10:26:07;;;;;;;10.73;3.60;;;36.10;42.10;;;;;;5075516;28;20031;-15
2022/07/01 10:28:48;;;;;;;11.30;4.45;;;36.10;42.30;;;;;;5075214;28;20146;-16
2022/07/01 10:31:16;;;;;;;8.90;3.72;;;36.10;42.60;;;;;;5075669;28;20035;-16
2022/07/01 10:33:45;;;;;;;9.85;3.83;;;36.10;42.90;;;;;;5075265;28;20383;-15
2022/07/01 10:36:18;;;;;;;12.55;3.90;;;36.00;42.90;;;;;;5075510;28;20040;-15
2022/07/01 10:39:06;;;;;;;;;;;36.00;42.90;;;;;;5075645;28;20471;-15
2022/07/01 10:41:53;;;;;;;11.52;3.90;;;35.90;42.80;;;;;;5013208;28;19917;-16
2022/07/01 10:44:20;;;;;;;9.55;4.00;;;36.00;43.30;;;;;;5013402;28;20034;-16
2022/07/01 10:46:58;;;;;;;8.00;3.53;;;36.40;42.30;;;;;;5013332;28;20064;-16
2022/07/01 10:49:36;;;;;;;8.35;3.63;;;36.90;41.60;;;;;;5013083;28;20053;-14
2022/07/01 10:52:15;;;;;;;9.65;3.25;;;37.40;40.60;;;;;;5013156;28;20045;-15
2022/07/01 10:54:45;;;;;;;10.15;3.83;;;37.70;40.10;;;;;;5013161;28;20029;-14
2022/07/01 10:57:20;;;;;;;11.10;3.97;;;37.80;40.00;;;;;;5013089;28;20034;-15
2022/07/01 11:00:00;;;;;;;14.50;4.20;;;37.90;39.50;;;;;;5012057;28;20038;-15
2022/07/01 11:02:32;;;;;;;13.02;3.70;;;37.70;39.30;;;;;;5012811;28;20130;-15
2022/07/01 11:05:16;;;;;;;12.73;3.95;;;37.80;40.00;;;;;;5012948;28;20120;-15
2022/07/01 11:07:47;;;;;;;12.63;4.00;;;38.20;38.50;;;;;;5012880;28;20026;-15
2022/07/01 11:10:15;;;;;;;14.68;4.10;;;37.90;38.90;;;;;;5012903;28;20026;-15
2022/07/01 11:12:44;;;;;;;9.38;3.83;;;37.70;39.00;;;;;;5012903;28;20037;-15
2022/07/01 11:15:12;;;;;;;9.40;3.80;;;37.70;39.60;;;;;;5012734;28;20084;-15
2022/07/01 11:17:47;;;;;;;7.47;3.53;;;37.60;39.90;;;;;;5019483;28;20034;-15
2022/07/01 11:20:13;;;;;;;12.43;4.45;;;37.40;40.50;;;;;;5074405;28;20028;-15
2022/07/01 11:22:40;;;;;;;8.90;3.50;;;37.10;41.10;;;;;;5074447;28;20020;-15
2022/07/01 11:25:11;;;;;;;13.10;3.30;;;36.70;41.70;;;;;;5074327;28;20021;-15
2022/07/01 11:27:38;;;;;;;13.90;3.70;;;36.60;42.20;;;;;;5074274;28;20025;-15
2022/07/01 11:30:12;;;;;;;12.50;3.95;;;37.00;41.50;;;;;;5074355;28;20017;-16
2022/07/01 11:32:44;;;;;;;13.27;4.28;;;37.20;40.00;;;;;;5073906;28;20054;-16
2022/07/01 11:41:17;;;;;;;8.15;3.78;;;38.50;38.50;;;;;;5074248;28;20138;-15
2022/07/01 11:43:43;;;;;;;14.60;3.95;;;38.60;38.40;;;;;;5074501;28;20042;-17
2022/07/01 11:46:09;;;;;;;8.73;3.70;;;38.90;38.20;;;;;;5074216;28;20077;-15
2022/07/01 11:48:45;;;;;;;9.13;3.35;;;39.00;38.50;;;;;;5073105;28;20454;-16
2022/07/01 11:51:16;;;;;;;9.00;3.40;;;39.30;37.20;;;;;;5073795;28;20037;-16
2022/07/01 11:53:45;;;;;;;9.20;3.60;;;39.50;37.00;;;;;;5073597;28;20020;-15
2022/07/01 11:56:12;;;;;;;12.95;3.88;;;39.70;36.20;;;;;;5073670;28;20033;-16
2022/07/01 11:58:42;;;;;;;12.05;3.50;;;39.40;37.20;;;;;;5073480;28;20037;-16
2022/07/01 12:01:08;;;;;;;11.10;3.40;;;39.70;36.70;;;;;;5073832;28;20031;-17
2022/07/01 12:03:35;;;;;;;7.82;3.50;;;40.20;36.10;;;;;;5073547;28;20483;-17
2022/07/01 12:06:02;;;;;;;9.80;3.35;;;40.50;35.50;;;;;;5073795;28;20464;-16
2022/07/01 12:08:28;;;;;;;9.27;3.50;;;40.50;34.50;;;;;;5073123;28;20033;-16
2022/07/01 12:10:57;;;;;;;12.38;3.80;;;40.40;35.50;;;;;;5073172;28;20017;-15
2022/07/01 12:13:25;;;;;;;13.13;4.00;;;40.30;35.40;;;;;;5073758;28;20028;-15
2022/07/01 12:15:52;;;;;;;11.68;3.83;;;40.20;35.40;;;;;;5073373;28;20033;-15
2022/07/01 12:18:18;;;;;;;12.90;3.67;;;40.30;35.40;;;;;;5073094;28;20032;-15
2022/07/01 12:20:58;;;;;;;11.80;3.95;;;40.70;35.20;;;;;;5073608;28;20024;-16
2022/07/01 12:23:24;;;;;;;11.82;4.07;;;41.20;34.40;;;;;;5073163;28;20045;-15
2022/07/01 12:25:51;;;;;;;12.25;3.70;;;41.50;34.90;;;;;;5073505;28;20028;-15
2022/07/01 12:28:37;;;;;;;12.38;4.18;;;41.50;32.80;;;;;;5073360;28;20028;-15
2022/07/01 12:31:09;;;;;;;12.98;4.10;;;41.40;34.30;;;;;;5073515;28;20024;-16
2022/07/01 12:33:39;;;;;;;11.15;3.88;;;41.00;34.20;;;;;;5073537;28;20028;-15
2022/07/01 12:36:07;;;;;;;13.35;3.88;;;40.80;34.60;;;;;;5073799;28;20095;-15
2022/07/01 12:38:34;;;;;;;15.27;4.13;;;40.80;35.90;;;;;;5072800;28;20060;-15
2022/07/01 12:41:01;;;;;;;14.68;4.50;;;41.10;35.50;;;;;;5073309;28;20039;-14
2022/07/01 12:43:30;;;;;;;13.02;4.47;;;41.20;35.60;;;;;;5073525;28;20392;-15
2022/07/01 12:45:58;;;;;;;10.25;3.83;;;40.50;35.10;;;;;;5073335;28;20032;-16
2022/07/01 12:48:25;;;;;;;13.27;3.75;;;39.80;36.90;;;;;;5072607;28;20528;-16
2022/07/01 12:50:55;;;;;;;11.18;4.20;;;39.40;36.70;;;;;;5073026;28;20519;-16
2022/07/01 12:53:22;;;;;;;13.35;4.60;;;39.00;36.40;;;;;;5071669;28;20090;-15